createdAt,value
2023-04-26T00:01:54.213Z,100842.75
2023-04-26T00:05:05.261Z,100843.44
2023-04-26T00:08:09.409Z,100848.22
2023-04-26T00:11:12.414Z,100838.84
2023-04-26T00:14:18.726Z,100844.09
2023-04-26T00:17:24.818Z,100849.38
2023-04-26T00:20:27.963Z,100844.72
2023-04-26T00:23:32.049Z,100840.41
2023-04-26T00:26:35.433Z,100846.94
2023-04-26T00:29:38.804Z,100853.09
2023-04-26T00:32:43.709Z,100847.78
2023-04-26T00:35:46.812Z,100848.00
2023-04-26T00:38:49.914Z,100853.22
2023-04-26T00:41:53.171Z,100851.72
2023-04-26T00:45:03.700Z,100846.66
2023-04-26T00:48:09.483Z,100846.19
2023-04-26T00:51:13.769Z,100854.69
2023-04-26T00:54:17.224Z,100849.00
2023-04-26T00:57:20.262Z,100858.44
2023-04-26T01:00:23.446Z,100850.13
2023-04-26T01:03:28.363Z,100863.94
2023-04-26T01:06:35.818Z,100857.94
2023-04-26T01:09:42.155Z,100857.81
2023-04-26T01:12:45.277Z,100865.88
2023-04-26T01:15:49.714Z,100863.34
2023-04-26T01:18:55.613Z,100865.19
2023-04-26T01:21:58.614Z,100858.34
2023-04-26T01:25:07.680Z,100866.94
2023-04-26T01:28:10.671Z,100866.22
2023-04-26T01:31:13.808Z,100861.13
2023-04-26T01:34:17.656Z,100868.91
2023-04-26T01:37:22.461Z,100869.75
2023-04-26T01:40:27.060Z,100881.75
2023-04-26T01:43:30.795Z,100881.88
2023-04-26T01:46:33.851Z,100887.09
2023-04-26T01:49:37.010Z,100887.41
2023-04-26T01:52:40.019Z,100894.31
2023-04-26T01:55:44.336Z,100883.16
2023-04-26T01:58:50.696Z,100888.50
2023-04-26T02:01:54.068Z,100888.66
2023-04-26T02:04:57.211Z,100881.00
2023-04-26T02:08:02.940Z,100888.91
2023-04-26T02:11:07.411Z,100880.25
2023-04-26T02:14:12.529Z,100881.88
2023-04-26T02:17:16.358Z,100888.31
2023-04-26T02:20:19.523Z,100877.88
2023-04-26T02:23:24.611Z,100877.28
2023-04-26T02:26:29.040Z,100879.97
2023-04-26T02:29:43.680Z,100886.19
2023-04-26T02:32:50.960Z,100882.81
2023-04-26T02:36:00.151Z,100878.69
2023-04-26T02:39:06.210Z,100875.22
2023-04-26T02:42:11.699Z,100885.56
2023-04-26T02:45:15.567Z,100877.09
2023-04-26T02:48:19.257Z,100881.50
2023-04-26T02:51:22.371Z,100879.97
2023-04-26T02:54:28.586Z,100885.25
2023-04-26T02:57:36.480Z,100882.66
2023-04-26T03:00:39.817Z,100875.94
2023-04-26T03:03:45.428Z,100882.56
2023-04-26T03:06:48.874Z,100875.06
2023-04-26T03:09:55.111Z,100879.44
2023-04-26T03:12:59.610Z,100888.97
2023-04-26T03:16:02.744Z,100891.59
2023-04-26T03:19:05.897Z,100886.50
2023-04-26T03:22:09.115Z,100891.00
2023-04-26T03:25:13.266Z,100886.81
2023-04-26T03:28:18.158Z,100899.63
2023-04-26T03:31:21.992Z,100894.72
2023-04-26T03:34:25.250Z,100903.34
2023-04-26T03:37:28.470Z,100903.59
2023-04-26T03:40:38.728Z,100902.00
2023-04-26T03:43:43.402Z,100901.91
2023-04-26T03:46:46.418Z,100907.06
2023-04-26T03:49:49.795Z,100908.75
2023-04-26T03:52:52.875Z,100900.22
2023-04-26T03:55:56.892Z,100902.19
2023-04-26T03:59:01.360Z,100909.00
2023-04-26T04:02:04.968Z,100913.06
2023-04-26T04:05:09.241Z,100913.09
2023-04-26T04:08:13.882Z,100914.13
2023-04-26T04:11:16.980Z,100917.56
2023-04-26T04:14:21.406Z,100919.94
2023-04-26T04:17:24.871Z,100915.72
2023-04-26T04:20:28.593Z,100922.63
2023-04-26T04:23:33.532Z,100917.38
2023-04-26T04:26:39.315Z,100922.53
2023-04-26T04:29:43.961Z,100914.00
2023-04-26T04:32:47.416Z,100919.75
2023-04-26T04:35:54.154Z,100917.16
2023-04-26T04:39:11.332Z,100926.53
2023-04-26T04:42:15.231Z,100924.66
2023-04-26T04:45:22.644Z,100932.09
2023-04-26T04:48:28.276Z,100934.59
2023-04-26T04:51:32.090Z,100933.00
2023-04-26T04:54:35.475Z,100938.81
2023-04-26T04:57:42.634Z,100937.00
2023-04-26T05:00:47.472Z,100938.56
2023-04-26T05:04:02.194Z,100954.63
2023-04-26T05:07:06.620Z,100945.88
2023-04-26T05:10:12.236Z,100944.41
2023-04-26T05:13:15.462Z,100954.22
2023-04-26T05:16:19.855Z,100950.56
2023-04-26T05:19:24.854Z,100962.44
2023-04-26T05:22:28.807Z,100957.28
2023-04-26T05:25:32.162Z,100956.78
2023-04-26T05:28:44.004Z,100967.75
2023-04-26T05:32:01.796Z,100967.59
2023-04-26T05:35:17.693Z,100963.75
2023-04-26T05:38:21.928Z,100965.31
2023-04-26T05:41:25.086Z,100972.72
2023-04-26T05:44:28.276Z,100971.19
2023-04-26T05:47:33.358Z,100982.00
2023-04-26T05:50:37.702Z,100968.16
2023-04-26T05:53:42.604Z,100981.66
2023-04-26T05:56:45.647Z,100968.59
2023-04-26T05:59:48.757Z,100986.66
2023-04-26T06:02:54.398Z,100983.59
2023-04-26T06:05:58.112Z,100982.97
2023-04-26T06:09:01.546Z,100988.59
2023-04-26T06:12:05.572Z,100986.69
2023-04-26T06:15:12.877Z,100985.59
2023-04-26T06:18:17.733Z,100988.19
2023-04-26T06:21:22.896Z,100989.34
2023-04-26T06:24:26.127Z,100982.50
2023-04-26T06:27:29.230Z,100984.72
2023-04-26T06:30:32.231Z,100978.69
2023-04-26T06:33:36.646Z,100986.03
2023-04-26T06:36:39.735Z,100987.59
2023-04-26T06:39:42.833Z,100982.03
2023-04-26T06:42:46.040Z,100990.53
2023-04-26T06:46:09.098Z,100987.53
2023-04-26T06:49:13.482Z,100988.63
2023-04-26T06:52:16.867Z,100995.63
2023-04-26T06:55:20.045Z,100990.63
2023-04-26T06:58:23.112Z,100990.78
2023-04-26T07:01:26.406Z,100999.34
2023-04-26T07:04:32.128Z,100991.41
2023-04-26T07:07:35.250Z,100991.72
2023-04-26T07:10:40.001Z,100992.78
2023-04-26T07:13:43.020Z,101002.06
2023-04-26T07:16:46.553Z,100992.44
2023-04-26T07:19:55.537Z,100987.78
2023-04-26T07:23:00.594Z,100998.34
2023-04-26T07:26:04.730Z,100998.63
2023-04-26T07:29:07.723Z,101001.19
2023-04-26T07:32:11.218Z,100992.81
2023-04-26T07:35:16.866Z,100993.69
2023-04-26T07:38:20.686Z,100994.53
2023-04-26T07:41:23.914Z,101001.22
2023-04-26T07:44:27.239Z,101001.47
2023-04-26T07:47:31.892Z,101004.72
2023-04-26T07:50:36.353Z,101001.91
2023-04-26T07:53:39.674Z,101002.56
2023-04-26T07:56:42.743Z,101016.31
2023-04-26T07:59:46.015Z,101011.59
2023-04-26T08:02:49.384Z,101015.03
2023-04-26T08:05:54.054Z,101008.28
2023-04-26T08:08:57.301Z,101012.22
2023-04-26T08:12:00.418Z,101016.47
2023-04-26T08:15:04.680Z,101018.31
2023-04-26T08:18:08.531Z,101013.78
2023-04-26T08:21:15.139Z,101018.63
2023-04-26T08:24:18.617Z,101021.63
2023-04-26T08:27:22.133Z,101020.72
2023-04-26T08:30:25.530Z,101027.31
2023-04-26T08:33:28.731Z,101024.22
2023-04-26T08:36:37.214Z,101013.25
2023-04-26T08:39:41.616Z,101014.03
2023-04-26T08:42:44.867Z,101022.59
2023-04-26T08:45:48.412Z,101027.63
2023-04-26T08:49:02.304Z,101020.88
2023-04-26T08:52:12.318Z,101049.38
2023-04-26T08:55:21.949Z,101048.22
2023-04-26T08:58:25.948Z,101047.59
2023-04-26T09:01:31.768Z,101044.47
2023-04-26T09:04:36.264Z,101041.53
2023-04-26T09:07:44.632Z,101036.22
2023-04-26T09:10:48.191Z,101022.78
2023-04-26T09:13:51.572Z,101039.31
2023-04-26T09:16:55.677Z,101024.66
2023-04-26T09:20:02.123Z,101025.25
2023-04-26T09:23:09.012Z,101034.47
2023-04-26T09:26:20.987Z,101026.69
2023-04-26T09:29:24.253Z,101032.19
2023-04-26T09:32:29.186Z,101038.81
2023-04-26T09:35:35.501Z,101021.34
2023-04-26T09:38:44.615Z,101019.19
2023-04-26T09:41:47.737Z,101026.31
2023-04-26T09:44:51.832Z,101020.81
2023-04-26T09:47:55.185Z,101028.97
2023-04-26T09:50:59.893Z,101024.16
2023-04-26T09:54:04.594Z,101022.41
2023-04-26T09:57:07.975Z,101026.59
2023-04-26T10:00:14.036Z,101028.34
2023-04-26T10:03:19.223Z,101026.53
2023-04-26T10:06:22.425Z,101020.31
2023-04-26T10:09:27.856Z,101009.78
2023-04-26T10:12:30.881Z,101026.31
2023-04-26T10:15:34.679Z,101017.47
2023-04-26T10:18:38.286Z,101018.78
2023-04-26T10:21:44.392Z,101026.41
2023-04-26T10:24:50.617Z,101021.53
2023-04-26T10:27:54.333Z,101023.44
2023-04-26T10:30:58.768Z,101020.88
2023-04-26T10:34:21.562Z,101029.38
2023-04-26T10:37:24.628Z,101034.72
2023-04-26T10:40:33.203Z,101037.41
2023-04-26T10:43:36.333Z,101047.44
2023-04-26T10:46:43.318Z,101047.56
2023-04-26T10:49:48.371Z,101047.56
2023-04-26T10:53:07.058Z,101050.91
2023-04-26T10:56:11.436Z,101048.41
2023-04-26T10:59:36.199Z,101050.94
2023-04-26T11:02:48.318Z,101050.56
2023-04-26T11:05:55.509Z,101044.44
2023-04-26T11:09:01.286Z,101033.56
2023-04-26T11:12:08.961Z,101047.50
2023-04-26T11:15:14.185Z,101038.97
2023-04-26T11:18:20.828Z,101037.94
2023-04-26T11:21:23.944Z,101045.34
2023-04-26T11:24:27.545Z,101038.06
2023-04-26T11:27:31.948Z,101041.41
2023-04-26T11:30:35.215Z,101045.44
2023-04-26T11:33:41.485Z,101043.56
2023-04-26T11:36:46.411Z,101044.03
2023-04-26T11:39:51.260Z,101040.16
2023-04-26T11:42:55.638Z,101041.09
2023-04-26T11:46:01.394Z,101034.78
2023-04-26T11:49:04.785Z,101043.69
2023-04-26T11:52:09.712Z,101044.06
2023-04-26T11:55:12.817Z,101045.16
2023-04-26T11:58:17.447Z,101048.22
2023-04-26T12:01:24.952Z,101051.84
2023-04-26T12:04:39.892Z,101053.50
2023-04-26T12:07:43.085Z,101051.88
2023-04-26T12:10:48.254Z,101061.88
2023-04-26T12:13:52.654Z,101044.06
2023-04-26T12:16:56.292Z,101051.50
2023-04-26T12:19:59.396Z,101052.94
2023-04-26T12:23:06.540Z,101048.94
2023-04-26T12:26:11.955Z,101051.91
2023-04-26T12:29:16.683Z,101045.94
2023-04-26T12:32:22.457Z,101051.81
2023-04-26T12:35:26.812Z,101050.53
2023-04-26T12:38:29.876Z,101060.78
2023-04-26T12:41:32.837Z,101051.47
2023-04-26T12:44:37.566Z,101057.44
2023-04-26T12:47:41.272Z,101056.03
2023-04-26T12:50:45.845Z,101057.59
2023-04-26T12:53:48.917Z,101069.34
2023-04-26T12:56:52.229Z,101067.09
2023-04-26T12:59:56.973Z,101063.00
2023-04-26T13:03:00.542Z,101049.22
2023-04-26T13:06:04.723Z,101047.53
2023-04-26T13:09:09.717Z,101056.28
2023-04-26T13:12:14.173Z,101043.34
2023-04-26T13:15:18.596Z,101042.44
2023-04-26T13:18:22.421Z,101050.13
2023-04-26T13:21:25.658Z,101048.03
2023-04-26T13:24:29.063Z,101044.81
2023-04-26T13:27:34.889Z,101040.66
2023-04-26T13:30:44.427Z,101041.28
2023-04-26T13:33:49.254Z,101043.06
2023-04-26T13:36:53.517Z,101040.84
2023-04-26T13:39:56.526Z,101042.94
2023-04-26T13:42:59.839Z,101048.34
2023-04-26T13:46:04.506Z,101053.06
2023-04-26T13:49:08.254Z,101051.41
2023-04-26T13:52:19.761Z,101054.13
2023-04-26T13:55:23.028Z,101062.78
2023-04-26T13:58:26.212Z,101070.81
2023-04-26T14:01:35.075Z,101076.59
2023-04-26T14:04:39.187Z,101087.91
2023-04-26T14:07:42.508Z,101080.56
2023-04-26T14:10:45.816Z,101074.28
2023-04-26T14:13:50.773Z,101068.91
2023-04-26T14:16:56.238Z,101069.03
2023-04-26T14:19:59.513Z,101076.00
2023-04-26T14:23:03.500Z,101071.63
2023-04-26T14:26:08.480Z,101079.34
2023-04-26T14:29:11.739Z,101077.41
2023-04-26T14:32:16.420Z,101078.03
2023-04-26T14:35:19.635Z,101069.84
2023-04-26T14:38:25.888Z,101068.19
2023-04-26T14:41:29.439Z,101069.34
2023-04-26T14:44:32.746Z,101077.88
2023-04-26T14:47:37.704Z,101082.16
2023-04-26T14:50:41.790Z,101078.97
2023-04-26T14:53:47.960Z,101084.25
2023-04-26T14:56:59.473Z,101074.53
2023-04-26T15:00:48.120Z,101079.97
2023-04-26T15:04:31.690Z,101078.78
2023-04-26T15:07:41.265Z,101085.84
2023-04-26T15:10:44.281Z,101078.16
2023-04-26T15:13:47.365Z,101084.28
2023-04-26T15:16:50.449Z,101082.41
2023-04-26T15:19:57.565Z,101075.34
2023-04-26T15:23:00.621Z,101069.47
2023-04-26T15:26:04.559Z,101065.50
2023-04-26T15:29:08.797Z,101063.50
2023-04-26T15:32:12.014Z,101072.22
2023-04-26T15:35:17.043Z,101063.34
2023-04-26T15:38:20.877Z,101064.59
2023-04-26T15:41:24.153Z,101069.09
2023-04-26T15:44:28.045Z,101069.63
2023-04-26T15:47:31.835Z,101064.28
2023-04-26T15:50:37.680Z,101069.53
2023-04-26T15:53:44.018Z,101075.66
2023-04-26T15:56:47.327Z,101068.53
2023-04-26T15:59:51.064Z,101084.25
2023-04-26T16:02:54.468Z,101081.47
2023-04-26T16:05:58.876Z,101075.38
2023-04-26T16:09:20.844Z,101081.19
2023-04-26T16:12:27.803Z,101078.25
2023-04-26T16:15:33.618Z,101076.38
2023-04-26T16:18:40.032Z,101076.00
2023-04-26T16:21:44.413Z,101086.31
2023-04-26T16:24:47.442Z,101083.00
2023-04-26T16:27:50.802Z,101080.84
2023-04-26T16:30:54.287Z,101090.50
2023-04-26T16:33:57.324Z,101091.44
2023-04-26T16:37:01.864Z,101098.84
2023-04-26T16:40:10.377Z,101090.69
2023-04-26T16:43:14.399Z,101090.69
2023-04-26T16:46:17.480Z,101087.31
2023-04-26T16:49:21.256Z,101091.16
2023-04-26T16:52:26.045Z,101088.28
2023-04-26T16:55:29.136Z,101095.31
2023-04-26T16:58:32.434Z,101087.63
2023-04-26T17:01:35.582Z,101088.44
2023-04-26T17:04:38.800Z,101091.44
2023-04-26T17:07:43.333Z,101080.28
2023-04-26T17:10:47.855Z,101086.25
2023-04-26T17:13:52.863Z,101088.56
2023-04-26T17:16:56.486Z,101090.25
2023-04-26T17:19:59.950Z,101094.59
2023-04-26T17:23:09.649Z,101097.47
2023-04-26T17:26:12.737Z,101097.00
2023-04-26T17:29:15.859Z,101105.81
2023-04-26T17:32:19.264Z,101105.19
2023-04-26T17:35:22.517Z,101103.50
2023-04-26T17:38:27.028Z,101116.41
2023-04-26T17:41:31.102Z,101117.06
2023-04-26T17:44:34.667Z,101110.97
2023-04-26T17:47:38.090Z,101112.91
2023-04-26T17:50:41.253Z,101115.34
2023-04-26T17:53:45.916Z,101119.13
2023-04-26T17:56:51.415Z,101118.94
2023-04-26T17:59:54.417Z,101121.50
2023-04-26T18:02:57.990Z,101131.16
2023-04-26T18:06:03.898Z,101133.44
2023-04-26T18:09:09.271Z,101133.81
2023-04-26T18:12:12.283Z,101140.19
2023-04-26T18:15:15.618Z,101145.63
2023-04-26T18:18:29.453Z,101150.72
2023-04-26T18:21:58.572Z,101150.63
2023-04-26T18:25:03.996Z,101148.72
2023-04-26T18:28:12.877Z,101150.25
2023-04-26T18:31:16.684Z,101155.09
2023-04-26T18:34:20.526Z,101156.28
2023-04-26T18:37:26.826Z,101165.81
2023-04-26T18:40:34.095Z,101167.09
2023-04-26T18:43:37.945Z,101161.94
2023-04-26T18:46:49.302Z,101165.66
2023-04-26T18:49:59.724Z,101169.94
2023-04-26T18:53:33.029Z,101175.84
2023-04-26T18:56:50.094Z,101174.94
2023-04-26T18:59:57.338Z,101181.88
2023-04-26T19:03:02.914Z,101185.25
2023-04-26T19:06:10.401Z,101179.03
2023-04-26T19:09:13.836Z,101179.72
2023-04-26T19:12:18.537Z,101187.91
2023-04-26T19:15:24.074Z,101187.75
2023-04-26T19:18:27.723Z,101188.44
2023-04-26T19:21:31.418Z,101190.25
2023-04-26T19:24:34.448Z,101192.78
2023-04-26T19:27:39.025Z,101189.59
2023-04-26T19:30:42.933Z,101191.13
2023-04-26T19:33:48.713Z,101198.25
2023-04-26T19:36:52.848Z,101194.22
2023-04-26T19:39:56.027Z,101205.16
2023-04-26T19:43:00.760Z,101210.94
2023-04-26T19:46:14.787Z,101206.28
2023-04-26T19:49:18.644Z,101205.31
2023-04-26T19:52:26.231Z,101212.34
2023-04-26T19:55:49.920Z,101208.53
2023-04-26T20:03:02.629Z,101216.44
2023-04-26T20:06:17.158Z,101216.16
2023-04-26T20:09:20.848Z,101223.00
2023-04-26T20:12:24.141Z,101213.16
2023-04-26T20:15:32.258Z,101222.03
2023-04-26T20:18:39.315Z,101223.00
2023-04-26T20:21:45.266Z,101219.34
2023-04-26T20:24:48.416Z,101219.75
2023-04-26T20:27:51.487Z,101225.75
2023-04-26T20:30:56.212Z,101230.78
2023-04-26T20:34:00.671Z,101231.78
2023-04-26T20:37:04.018Z,101231.88
2023-04-26T20:40:09.313Z,101227.88
2023-04-26T20:43:14.077Z,101234.16
2023-04-26T20:46:18.494Z,101234.19
2023-04-26T20:49:22.117Z,101230.69
2023-04-26T20:52:25.175Z,101224.97
2023-04-26T20:55:34.043Z,101239.16
2023-04-26T20:58:42.178Z,101236.94
2023-04-26T21:01:47.035Z,101222.34
2023-04-26T21:04:50.233Z,101227.72
2023-04-26T21:07:56.538Z,101230.63
2023-04-26T21:10:59.532Z,101238.50
2023-04-26T21:14:10.958Z,101238.63
2023-04-26T21:17:15.655Z,101230.69
2023-04-26T21:20:18.946Z,101229.88
2023-04-26T21:23:21.971Z,101223.44
2023-04-26T21:26:25.082Z,101231.00
2023-04-26T21:29:31.977Z,101234.44
2023-04-26T21:32:37.692Z,101226.59
2023-04-26T21:35:43.843Z,101229.66
2023-04-26T21:38:48.313Z,101234.06
2023-04-26T21:41:51.436Z,101239.03
2023-04-26T21:44:54.465Z,101239.13
2023-04-26T21:47:58.806Z,101236.94
2023-04-26T21:51:02.037Z,101242.63
2023-04-26T21:54:05.126Z,101239.16
2023-04-26T21:57:09.339Z,101239.03
2023-04-26T22:00:13.551Z,101245.22
2023-04-26T22:03:21.782Z,101234.56
2023-04-26T22:06:25.060Z,101246.50
2023-04-26T22:09:28.767Z,101242.94
2023-04-26T22:12:34.660Z,101245.09
2023-04-26T22:15:37.969Z,101251.19
2023-04-26T22:18:46.361Z,101249.22
2023-04-26T22:21:49.343Z,101255.84
2023-04-26T22:24:52.409Z,101258.53
2023-04-26T22:27:58.495Z,101266.13
2023-04-26T22:31:04.069Z,101264.63
2023-04-26T22:34:11.750Z,101266.31
2023-04-26T22:37:26.591Z,101270.56
2023-04-26T22:40:29.902Z,101275.88
2023-04-26T22:43:36.010Z,101269.63
2023-04-26T22:46:41.236Z,101281.84
2023-04-26T22:49:45.613Z,101287.16
2023-04-26T22:52:52.457Z,101282.81
2023-04-26T22:55:55.604Z,101281.97
2023-04-26T22:59:00.371Z,101281.97
2023-04-26T23:02:03.953Z,101279.56
2023-04-26T23:05:11.583Z,101283.09
2023-04-26T23:08:21.343Z,101286.63
2023-04-26T23:11:24.446Z,101291.88
2023-04-26T23:14:37.871Z,101292.00
2023-04-26T23:17:51.525Z,101291.81
2023-04-26T23:21:01.316Z,101296.28
2023-04-26T23:24:08.232Z,101298.25
2023-04-26T23:27:15.185Z,101299.09
2023-04-26T23:30:18.937Z,101308.47
2023-04-26T23:33:31.809Z,101306.63
2023-04-26T23:36:52.953Z,101296.34
2023-04-26T23:39:56.717Z,101296.44
2023-04-26T23:43:06.400Z,101297.28
2023-04-26T23:46:09.767Z,101297.13
2023-04-26T23:49:13.367Z,101298.09
2023-04-26T23:52:20.245Z,101295.59
2023-04-26T23:55:23.900Z,101302.59
2023-04-26T23:58:31.178Z,101295.06
